createdAt,value
2019-01-04T00:02:30.259Z,12.67
2019-01-04T00:07:37.858Z,11.83
2019-01-04T00:12:44.203Z,11.87
2019-01-04T00:17:51.706Z,11.33
2019-01-04T00:23:00.050Z,10.83
2019-01-04T00:28:07.780Z,11.07
2019-01-04T00:33:14.122Z,12.97
2019-01-04T00:38:21.854Z,12.93
2019-01-04T00:43:28.017Z,13.00
2019-01-04T00:48:34.193Z,13.90
2019-01-04T00:53:41.522Z,13.53
2019-01-04T00:59:34.479Z,13.60
2019-01-04T01:05:29.726Z,13.50
2019-01-04T01:11:26.135Z,11.80
2019-01-04T01:17:34.259Z,11.20
2019-01-04T01:23:20.201Z,12.50
2019-01-04T01:29:23.683Z,12.73
2019-01-04T01:35:05.593Z,11.33
2019-01-04T01:40:48.252Z,11.77
2019-01-04T01:46:27.146Z,12.10
2019-01-04T01:51:49.753Z,11.60
2019-01-04T01:56:57.283Z,11.67
2019-01-04T02:02:03.269Z,13.27
2019-01-04T02:07:09.651Z,11.60
2019-01-04T02:12:15.946Z,11.63
2019-01-04T02:17:22.450Z,11.90
2019-01-04T02:22:29.679Z,11.50
2019-01-04T02:27:37.318Z,11.47
2019-01-04T02:32:43.259Z,11.23
2019-01-04T02:37:50.642Z,11.13
2019-01-04T02:42:57.310Z,10.83
2019-01-04T02:48:03.299Z,9.97
2019-01-04T02:53:10.246Z,10.00
2019-01-04T02:58:18.000Z,9.47
2019-01-04T03:03:23.972Z,9.03
2019-01-04T03:08:31.722Z,9.33
2019-01-04T03:13:39.295Z,8.80
2019-01-04T03:18:47.019Z,8.53
2019-01-04T03:23:53.579Z,9.07
2019-01-04T03:29:00.785Z,8.27
2019-01-04T03:34:07.737Z,8.90
2019-01-04T03:39:14.819Z,7.77
2019-01-04T03:44:22.408Z,7.80
2019-01-04T03:49:29.553Z,7.50
2019-01-04T03:54:37.319Z,6.87
2019-01-04T03:59:43.263Z,7.50
2019-01-04T04:04:49.594Z,7.53
2019-01-04T04:09:56.814Z,7.43
2019-01-04T04:15:02.772Z,8.27
2019-01-04T04:20:09.816Z,8.93
2019-01-04T04:25:17.402Z,8.87
2019-01-04T04:30:23.547Z,8.53
2019-01-04T04:35:30.486Z,9.30
2019-01-04T04:40:38.077Z,8.60
2019-01-04T04:45:44.189Z,9.07
2019-01-04T04:50:51.747Z,10.03
2019-01-04T04:55:59.361Z,9.40
2019-01-04T05:01:06.969Z,8.77
2019-01-04T05:06:13.686Z,9.20
2019-01-04T05:11:20.891Z,9.27
2019-01-04T05:16:28.640Z,9.70
2019-01-04T05:21:34.701Z,9.43
2019-01-04T05:26:41.514Z,9.50
2019-01-04T05:31:49.446Z,9.27
2019-01-04T05:36:57.079Z,8.83
2019-01-04T05:42:02.997Z,9.27
2019-01-04T05:47:09.751Z,8.63
2019-01-04T05:52:17.688Z,8.73
2019-01-04T05:57:23.655Z,7.77
2019-01-04T06:02:31.209Z,7.60
2019-01-04T06:07:39.025Z,7.70
2019-01-04T06:12:45.336Z,7.13
2019-01-04T06:17:52.421Z,7.00
2019-01-04T06:23:00.127Z,7.43
2019-01-04T06:28:07.602Z,7.27
2019-01-04T06:33:16.243Z,7.43
2019-01-04T06:38:22.214Z,7.43
2019-01-04T06:43:29.755Z,7.77
2019-01-04T06:48:37.279Z,8.53
2019-01-04T06:53:43.214Z,9.10
2019-01-04T06:58:50.943Z,7.77
2019-01-04T07:03:58.786Z,7.90
2019-01-04T07:09:06.051Z,7.73
2019-01-04T07:14:12.903Z,7.90
2019-01-04T07:19:20.379Z,8.80
2019-01-04T07:24:30.264Z,8.03
2019-01-04T07:29:37.786Z,9.50
2019-01-04T07:34:43.829Z,7.37
2019-01-04T07:39:51.702Z,19.77
2019-01-04T07:44:59.753Z,22.07
2019-01-04T07:50:08.485Z,15.97
2019-01-04T07:55:14.926Z,10.87
2019-01-04T08:00:22.648Z,17.90
2019-01-04T08:05:30.287Z,11.80
2019-01-04T08:10:37.301Z,12.77
2019-01-04T08:15:43.411Z,10.43
2019-01-04T08:20:50.274Z,14.80
2019-01-04T08:25:57.824Z,9.73
2019-01-04T08:31:03.728Z,11.70
2019-01-04T08:36:10.781Z,10.57
2019-01-04T08:41:18.375Z,7.47
2019-01-04T08:46:24.482Z,7.30
2019-01-04T08:51:32.550Z,9.00
2019-01-04T08:56:40.739Z,9.33
2019-01-04T09:01:48.315Z,9.70
2019-01-04T09:06:54.522Z,9.87
2019-01-04T09:12:01.491Z,10.37
2019-01-04T09:17:09.102Z,8.87
2019-01-04T09:22:16.791Z,8.40
2019-01-04T09:27:22.883Z,12.90
2019-01-04T09:32:30.137Z,8.97
2019-01-04T09:37:37.317Z,10.73
2019-01-04T09:42:45.905Z,8.87
2019-01-04T09:47:51.955Z,8.43
2019-01-04T09:52:59.444Z,8.27
2019-01-04T09:58:07.132Z,7.80
2019-01-04T10:03:14.208Z,8.57
2019-01-04T10:08:21.690Z,9.90
2019-01-04T10:13:29.219Z,8.97
2019-01-04T10:18:37.077Z,9.40
2019-01-04T10:23:42.991Z,8.23
2019-01-04T10:28:51.849Z,7.90
2019-01-04T10:33:59.397Z,8.13
2019-01-04T10:39:09.065Z,6.03
2019-01-04T10:44:15.012Z,7.10
2019-01-04T10:49:22.434Z,5.50
2019-01-04T10:54:30.347Z,8.27
2019-01-04T10:59:37.943Z,6.70
2019-01-04T11:04:44.123Z,9.03
2019-01-04T11:09:51.759Z,6.57
2019-01-04T11:14:59.293Z,11.40
2019-01-04T11:20:07.283Z,6.30
2019-01-04T11:25:59.046Z,6.40
2019-01-04T11:31:34.420Z,6.17
2019-01-04T11:37:07.430Z,7.50
2019-01-04T11:42:45.555Z,7.60
2019-01-04T11:48:33.583Z,8.07
2019-01-04T11:53:40.578Z,7.37
2019-01-04T11:58:47.520Z,3.27
2019-01-04T12:03:58.595Z,3.77
2019-01-04T12:09:07.891Z,2.97
2019-01-04T12:14:13.802Z,3.53
2019-01-04T12:19:21.613Z,3.63
2019-01-04T12:24:29.202Z,3.23
2019-01-04T12:29:36.863Z,2.90
2019-01-04T12:34:42.964Z,2.40
2019-01-04T12:39:50.235Z,3.97
2019-01-04T12:44:57.884Z,5.43
2019-01-04T12:50:05.433Z,4.73
2019-01-04T12:55:12.398Z,3.20
2019-01-04T13:00:20.171Z,3.00
2019-01-04T13:05:27.889Z,3.83
2019-01-04T13:10:35.707Z,3.00
2019-01-04T13:15:42.431Z,3.23
2019-01-04T13:20:49.874Z,3.30
2019-01-04T13:25:57.492Z,3.80
2019-01-04T13:31:03.666Z,3.53
2019-01-04T13:36:11.237Z,2.80
2019-01-04T13:41:18.728Z,5.10
2019-01-04T13:46:25.302Z,3.80
2019-01-04T13:51:32.362Z,2.80
2019-01-04T13:56:40.208Z,3.47
2019-01-04T14:01:47.769Z,2.80
2019-01-04T14:06:53.760Z,4.73
2019-01-04T14:12:01.684Z,4.17
2019-01-04T14:17:09.359Z,4.07
2019-01-04T14:22:17.218Z,3.50
2019-01-04T14:27:23.485Z,3.17
2019-01-04T14:32:30.268Z,2.73
2019-01-04T14:37:38.067Z,3.80
2019-01-04T14:42:45.291Z,3.63
2019-01-04T14:47:52.583Z,3.13
2019-01-04T14:53:06.969Z,4.87
2019-01-04T14:58:12.948Z,4.70
2019-01-04T15:03:20.371Z,2.80
2019-01-04T15:08:27.882Z,3.00
2019-01-04T15:13:34.001Z,3.43
2019-01-04T15:18:41.464Z,3.30
2019-01-04T15:23:47.490Z,3.57
2019-01-04T15:28:53.598Z,4.23
2019-01-04T15:34:00.960Z,3.00
2019-01-04T15:39:09.476Z,2.73
2019-01-04T15:44:17.019Z,3.60
2019-01-04T15:49:23.225Z,2.83
2019-01-04T15:54:30.131Z,3.03
2019-01-04T15:59:37.902Z,3.60
2019-01-04T16:04:43.855Z,3.23
2019-01-04T16:09:51.029Z,4.00
2019-01-04T16:14:58.710Z,3.70
2019-01-04T16:20:05.495Z,3.37
2019-01-04T16:25:12.651Z,4.37
2019-01-04T16:30:19.474Z,5.23
2019-01-04T16:35:25.594Z,7.97
2019-01-04T16:40:32.264Z,8.33
2019-01-04T16:45:41.524Z,8.93
2019-01-04T16:50:49.064Z,7.40
2019-01-04T16:55:56.935Z,8.37
2019-01-04T17:01:02.855Z,9.73
2019-01-04T17:06:10.456Z,7.87
2019-01-04T17:11:18.152Z,9.10
2019-01-04T17:16:24.105Z,8.57
2019-01-04T17:21:31.582Z,7.50
2019-01-04T17:26:39.312Z,9.30
2019-01-04T17:31:46.909Z,7.57
2019-01-04T17:36:53.713Z,7.03
2019-01-04T17:42:01.442Z,6.90
2019-01-04T17:47:09.358Z,5.53
2019-01-04T17:52:16.882Z,8.57
2019-01-04T17:57:24.346Z,6.93
2019-01-04T18:02:31.060Z,7.60
2019-01-04T18:07:38.953Z,6.97
2019-01-04T18:12:45.259Z,7.20
2019-01-04T18:17:58.543Z,6.60
2019-01-04T18:23:02.288Z,6.43
2019-01-04T18:28:09.837Z,6.97
2019-01-04T18:33:16.314Z,8.00
2019-01-04T18:38:22.285Z,8.20
2019-01-04T18:43:29.967Z,8.10
2019-01-04T18:48:37.171Z,7.67
2019-01-04T18:53:43.431Z,8.03
2019-01-04T18:58:50.328Z,7.60
2019-01-04T19:03:58.056Z,7.43
2019-01-04T19:09:04.216Z,8.40
2019-01-04T19:14:11.588Z,8.20
2019-01-04T19:19:19.254Z,11.33
2019-01-04T19:24:27.868Z,10.03
2019-01-04T19:29:35.214Z,10.17
2019-01-04T19:34:43.561Z,9.20
2019-01-04T19:39:49.881Z,6.53
2019-01-04T19:44:57.309Z,6.63
2019-01-04T19:50:21.162Z,9.80
2019-01-04T19:55:27.206Z,12.63
2019-01-04T20:00:33.707Z,10.03
2019-01-04T20:06:33.490Z,9.30
2019-01-04T20:12:44.380Z,11.33
2019-01-04T20:18:25.434Z,10.23
2019-01-04T20:23:49.876Z,11.63
2019-01-04T20:29:25.830Z,14.40
2019-01-04T20:35:00.512Z,13.73
2019-01-04T20:40:41.687Z,14.67
2019-01-04T20:46:07.926Z,15.63
2019-01-04T20:51:36.795Z,15.10
2019-01-04T20:57:00.122Z,11.67
2019-01-04T21:02:25.093Z,14.03
2019-01-04T21:07:50.134Z,16.40
2019-01-04T21:13:25.243Z,9.87
2019-01-04T21:18:54.078Z,9.50
2019-01-04T21:24:23.115Z,11.43
2019-01-04T21:30:01.243Z,10.43
2019-01-04T21:35:25.198Z,9.47
2019-01-04T21:40:46.525Z,11.90
2019-01-04T21:46:15.019Z,7.97
2019-01-04T21:51:39.553Z,8.53
2019-01-04T21:57:06.157Z,9.17
2019-01-04T22:02:43.317Z,8.60
2019-01-04T22:08:09.880Z,12.10
2019-01-04T22:13:54.634Z,12.70
2019-01-04T22:19:20.245Z,10.17
2019-01-04T22:24:48.709Z,10.80
2019-01-04T22:30:07.780Z,9.37
2019-01-04T22:35:36.916Z,7.73
2019-01-04T22:41:01.853Z,8.37
2019-01-04T22:46:25.725Z,9.03
2019-01-04T22:51:54.211Z,8.33
2019-01-04T22:57:17.949Z,8.73
2019-01-04T23:02:49.077Z,12.67
2019-01-04T23:08:13.229Z,8.30
2019-01-04T23:13:45.208Z,9.13
2019-01-04T23:19:11.498Z,8.10
2019-01-04T23:24:36.460Z,9.00
2019-01-04T23:30:07.627Z,10.03
2019-01-04T23:35:41.820Z,8.00
2019-01-04T23:41:11.307Z,6.87
2019-01-04T23:46:36.824Z,6.97
2019-01-04T23:52:00.578Z,7.20
2019-01-04T23:57:25.606Z,7.40
